createdAt,value
2024-01-04T00:00:25.102Z,-21.30
2024-01-04T00:02:54.090Z,-21.42
2024-01-04T00:05:22.761Z,-21.37
2024-01-04T00:07:52.882Z,-21.44
2024-01-04T00:10:22.032Z,-21.41
2024-01-04T00:12:53.142Z,-21.41
2024-01-04T00:15:21.856Z,-21.38
2024-01-04T00:17:50.680Z,-21.33
2024-01-04T00:20:19.849Z,-21.32
2024-01-04T00:22:49.377Z,-21.31
2024-01-04T00:25:19.948Z,-21.23
2024-01-04T00:27:48.731Z,-21.41
2024-01-04T00:30:17.577Z,-21.33
2024-01-04T00:32:46.456Z,-21.29
2024-01-04T00:35:16.133Z,-21.27
2024-01-04T00:37:44.685Z,-21.22
2024-01-04T00:40:13.600Z,-21.26
2024-01-04T00:42:43.623Z,-21.23
2024-01-04T00:45:12.789Z,-21.21
2024-01-04T00:47:41.664Z,-21.10
2024-01-04T00:50:11.507Z,-21.06
2024-01-04T00:52:40.072Z,-21.02
2024-01-04T00:55:09.710Z,-21.07
2024-01-04T00:57:38.252Z,-21.13
2024-01-04T01:00:10.460Z,-21.09
2024-01-04T01:02:39.200Z,-21.02
2024-01-04T01:05:09.248Z,-21.10
2024-01-04T01:07:37.853Z,-21.06
2024-01-04T01:10:06.920Z,-20.98
2024-01-04T01:12:35.731Z,-20.97
2024-01-04T01:15:04.483Z,-21.05
2024-01-04T01:17:35.605Z,-21.00
2024-01-04T01:20:04.872Z,-20.98
2024-01-04T01:22:33.573Z,-20.98
2024-01-04T01:25:02.092Z,-20.92
2024-01-04T01:27:30.856Z,-20.93
2024-01-04T01:29:59.509Z,-20.86
2024-01-04T01:32:28.225Z,-20.88
2024-01-04T01:34:59.099Z,-20.83
2024-01-04T01:37:28.238Z,-20.86
2024-01-04T01:39:56.919Z,-20.77
2024-01-04T01:42:25.516Z,-20.75
2024-01-04T01:44:55.170Z,-20.83
2024-01-04T01:47:25.900Z,-20.79
2024-01-04T01:49:55.011Z,-20.84
2024-01-04T01:52:26.306Z,-20.86
2024-01-04T01:54:55.028Z,-20.90
2024-01-04T01:57:23.922Z,-20.80
2024-01-04T01:59:52.650Z,-20.85
2024-01-04T02:02:21.529Z,-20.73
2024-01-04T02:04:50.350Z,-20.78
2024-01-04T02:07:19.295Z,-20.75
2024-01-04T02:09:50.299Z,-20.83
2024-01-04T02:12:19.001Z,-20.79
2024-01-04T02:14:49.626Z,-20.82
2024-01-04T02:17:18.346Z,-20.80
2024-01-04T02:19:49.296Z,-20.79
2024-01-04T02:22:18.752Z,-20.85
2024-01-04T02:24:48.844Z,-20.78
2024-01-04T02:27:19.382Z,-20.79
2024-01-04T02:29:47.978Z,-20.77
2024-01-04T02:32:16.486Z,-20.82
2024-01-04T02:34:45.049Z,-20.78
2024-01-04T02:37:13.596Z,-20.76
2024-01-04T02:39:42.403Z,-20.73
2024-01-04T02:42:12.770Z,-20.72
2024-01-04T02:44:41.085Z,-20.75
2024-01-04T02:47:09.798Z,-20.73
2024-01-04T02:49:38.431Z,-20.79
2024-01-04T02:52:07.800Z,-20.85
2024-01-04T02:54:36.388Z,-20.87
2024-01-04T02:57:05.177Z,-20.90
2024-01-04T02:59:35.626Z,-20.96
2024-01-04T03:02:03.970Z,-20.97
2024-01-04T03:04:32.862Z,-20.94
2024-01-04T03:07:01.391Z,-20.96
2024-01-04T03:09:29.929Z,-20.89
2024-01-04T03:11:58.546Z,-20.89
2024-01-04T03:14:27.104Z,-20.91
2024-01-04T03:16:57.087Z,-20.91
2024-01-04T03:19:25.812Z,-20.89
2024-01-04T03:21:54.466Z,-20.83
2024-01-04T03:24:22.902Z,-20.82
2024-01-04T03:26:51.559Z,-20.80
2024-01-04T03:29:20.332Z,-20.82
2024-01-04T03:31:48.934Z,-20.78
2024-01-04T03:34:19.387Z,-20.83
2024-01-04T03:36:48.148Z,-20.75
2024-01-04T03:39:16.723Z,-20.79
2024-01-04T03:41:45.382Z,-20.76
2024-01-04T03:44:14.029Z,-20.70
2024-01-04T03:46:42.746Z,-20.72
2024-01-04T03:49:12.958Z,-20.66
2024-01-04T03:51:43.164Z,-20.65
2024-01-04T03:54:11.810Z,-20.59
2024-01-04T03:56:40.653Z,-20.57
2024-01-04T03:59:09.400Z,-20.64
2024-01-04T04:01:45.740Z,-20.61
2024-01-04T04:04:18.414Z,-20.57
2024-01-04T04:06:49.170Z,-20.57
2024-01-04T04:09:19.909Z,-20.58
2024-01-04T04:11:50.666Z,-20.57
2024-01-04T04:14:19.597Z,-20.50
2024-01-04T04:16:53.480Z,-20.51
2024-01-04T04:19:22.508Z,-20.49
2024-01-04T04:21:54.210Z,-20.52
2024-01-04T04:24:23.175Z,-20.54
2024-01-04T04:26:52.192Z,-20.53
2024-01-04T04:29:24.196Z,-20.49
2024-01-04T04:31:56.883Z,-20.47
2024-01-04T04:34:25.795Z,-20.44
2024-01-04T04:36:56.214Z,-20.48
2024-01-04T04:39:24.825Z,-20.48
2024-01-04T04:41:54.941Z,-20.45
2024-01-04T04:44:23.784Z,-20.43
2024-01-04T04:46:53.528Z,-20.39
2024-01-04T04:49:24.682Z,-20.37
2024-01-04T04:51:53.756Z,-20.33
2024-01-04T04:54:24.053Z,-20.33
2024-01-04T04:56:53.530Z,-20.36
2024-01-04T04:59:24.571Z,-20.36
2024-01-04T05:01:53.556Z,-20.36
2024-01-04T05:04:22.502Z,-20.35
2024-01-04T05:06:51.976Z,-20.31
2024-01-04T05:09:25.411Z,-20.33
2024-01-04T05:11:54.219Z,-20.30
2024-01-04T05:14:23.383Z,-20.25
2024-01-04T05:16:53.309Z,-20.20
2024-01-04T05:19:22.322Z,-20.22
2024-01-04T05:21:51.644Z,-20.28
2024-01-04T05:24:21.139Z,-20.26
2024-01-04T05:26:53.729Z,-20.22
2024-01-04T05:29:22.227Z,-20.20
2024-01-04T05:31:51.118Z,-20.22
2024-01-04T05:34:19.918Z,-20.24
2024-01-04T05:36:49.070Z,-20.26
2024-01-04T05:39:18.050Z,-20.25
2024-01-04T05:41:47.407Z,-20.26
2024-01-04T05:44:18.276Z,-20.26
2024-01-04T05:46:47.104Z,-20.26
2024-01-04T05:49:16.502Z,-20.25
2024-01-04T05:51:45.728Z,-20.25
2024-01-04T05:54:14.606Z,-20.23
2024-01-04T05:56:46.462Z,-20.24
2024-01-04T05:59:17.384Z,-20.25
2024-01-04T06:01:46.482Z,-20.24
2024-01-04T06:04:15.185Z,-20.22
2024-01-04T06:06:44.228Z,-20.28
2024-01-04T06:09:21.972Z,-20.27
2024-01-04T06:11:52.550Z,-20.24
2024-01-04T06:14:22.825Z,-20.29
2024-01-04T06:16:54.737Z,-20.23
2024-01-04T06:19:25.944Z,-20.23
2024-01-04T06:21:54.973Z,-20.23
2024-01-04T06:24:24.701Z,-20.24
2024-01-04T06:27:00.173Z,-20.28
2024-01-04T06:29:31.269Z,-20.27
2024-01-04T06:32:03.286Z,-20.28
2024-01-04T06:34:33.645Z,-20.26
2024-01-04T06:37:02.618Z,-20.29
2024-01-04T06:39:31.593Z,-20.25
2024-01-04T06:42:00.685Z,-20.25
2024-01-04T06:44:38.468Z,-20.23
2024-01-04T06:47:13.232Z,-20.25
2024-01-04T06:49:43.201Z,-20.28
2024-01-04T06:52:14.437Z,-20.30
2024-01-04T06:54:43.488Z,-20.25
2024-01-04T06:57:12.939Z,-20.24
2024-01-04T06:59:43.663Z,-20.23
2024-01-04T07:02:13.185Z,-20.23
2024-01-04T07:04:42.162Z,-20.20
2024-01-04T07:07:11.264Z,-20.17
2024-01-04T07:09:42.913Z,-20.19
2024-01-04T07:12:14.880Z,-20.21
2024-01-04T07:14:48.275Z,-20.18
2024-01-04T07:17:17.665Z,-20.16
2024-01-04T07:19:46.992Z,-20.04
2024-01-04T07:22:16.897Z,-20.12
2024-01-04T07:24:45.662Z,-20.12
2024-01-04T07:27:14.317Z,-20.13
2024-01-04T07:29:43.238Z,-20.09
2024-01-04T07:32:13.668Z,-20.05
2024-01-04T07:34:43.408Z,-20.11
2024-01-04T07:37:14.798Z,-20.13
2024-01-04T07:39:43.774Z,-20.13
2024-01-04T07:42:12.310Z,-20.07
2024-01-04T07:44:45.379Z,-20.08
2024-01-04T07:47:20.612Z,-20.08
2024-01-04T07:49:50.177Z,-20.07
2024-01-04T07:52:19.072Z,-20.04
2024-01-04T07:54:51.374Z,-20.10
2024-01-04T07:57:20.323Z,-19.99
2024-01-04T07:59:49.102Z,-19.97
2024-01-04T08:02:18.595Z,-19.97
2024-01-04T08:04:48.626Z,-19.98
2024-01-04T08:07:17.350Z,-19.89
2024-01-04T08:09:45.856Z,-19.91
2024-01-04T08:12:14.995Z,-19.93
2024-01-04T08:14:43.747Z,-19.87
2024-01-04T08:17:12.313Z,-19.89
2024-01-04T08:19:41.030Z,-19.84
2024-01-04T08:22:11.162Z,-19.83
2024-01-04T08:24:39.730Z,-19.83
2024-01-04T08:27:08.275Z,-19.78
2024-01-04T08:29:36.901Z,-19.81
2024-01-04T08:32:05.880Z,-19.87
2024-01-04T08:34:34.873Z,-19.78
2024-01-04T08:37:03.359Z,-19.86
2024-01-04T08:39:33.545Z,-19.83
2024-01-04T08:42:02.612Z,-19.83
2024-01-04T08:44:31.188Z,-19.75
2024-01-04T08:46:59.852Z,-19.80
2024-01-04T08:49:28.550Z,-19.81
2024-01-04T08:51:57.781Z,-19.78
2024-01-04T08:54:26.303Z,-19.72
2024-01-04T08:56:56.456Z,-19.78
2024-01-04T08:59:25.280Z,-19.72
2024-01-04T09:01:53.882Z,-19.69
2024-01-04T09:04:22.362Z,-19.67
2024-01-04T09:06:51.145Z,-19.58
2024-01-04T09:09:19.849Z,-19.58
2024-01-04T09:11:50.471Z,-19.54
2024-01-04T09:14:20.544Z,-19.50
2024-01-04T09:16:50.106Z,-19.46
2024-01-04T09:19:19.783Z,-19.45
2024-01-04T09:21:51.057Z,-19.42
2024-01-04T09:24:21.888Z,-19.41
2024-01-04T09:26:50.565Z,-19.41
2024-01-04T09:29:20.753Z,-19.39
2024-01-04T09:31:49.276Z,-19.37
2024-01-04T09:34:17.969Z,-19.34
2024-01-04T09:36:47.101Z,-19.38
2024-01-04T09:39:19.508Z,-19.34
2024-01-04T09:41:50.204Z,-19.31
2024-01-04T09:44:20.385Z,-19.32
2024-01-04T09:46:51.690Z,-19.26
2024-01-04T09:49:23.129Z,-19.24
2024-01-04T09:51:54.394Z,-19.23
2024-01-04T09:54:23.428Z,-19.15
2024-01-04T09:56:53.336Z,-19.08
2024-01-04T09:59:23.714Z,-19.11
2024-01-04T10:01:53.133Z,-19.06
2024-01-04T10:04:22.808Z,-19.12
2024-01-04T10:06:57.155Z,-19.06
2024-01-04T10:09:29.004Z,-19.09
2024-01-04T10:12:07.015Z,-19.11
2024-01-04T10:14:38.560Z,-19.04
2024-01-04T10:17:11.208Z,-19.03
2024-01-04T10:19:42.006Z,-19.12
2024-01-04T10:22:11.042Z,-19.10
2024-01-04T10:24:42.816Z,-19.11
2024-01-04T10:27:17.092Z,-19.06
2024-01-04T10:29:52.195Z,-19.10
2024-01-04T10:32:20.941Z,-19.09
2024-01-04T10:34:49.433Z,-19.04
2024-01-04T10:37:19.501Z,-18.99
2024-01-04T10:39:59.034Z,-19.07
2024-01-04T10:42:27.718Z,-19.04
2024-01-04T10:44:58.449Z,-19.01
2024-01-04T10:47:28.481Z,-19.01
2024-01-04T10:50:01.168Z,-19.03
2024-01-04T10:52:33.068Z,-19.02
2024-01-04T10:55:04.886Z,-18.99
2024-01-04T10:57:38.193Z,-19.03
2024-01-04T11:00:10.238Z,-18.96
2024-01-04T11:02:41.602Z,-18.94
2024-01-04T11:05:13.059Z,-19.00
2024-01-04T11:07:42.644Z,-19.03
2024-01-04T11:10:14.324Z,-18.97
2024-01-04T11:12:43.861Z,-18.97
2024-01-04T11:15:16.028Z,-19.04
2024-01-04T11:18:13.481Z,-18.99
2024-01-04T11:21:06.134Z,-18.97
2024-01-04T11:23:50.440Z,-19.04
2024-01-04T11:26:28.522Z,-19.03
2024-01-04T11:28:59.712Z,-19.02
2024-01-04T11:31:29.914Z,-19.06
2024-01-04T11:33:59.324Z,-19.08
2024-01-04T11:36:28.675Z,-19.09
2024-01-04T11:38:59.331Z,-19.09
2024-01-04T11:41:35.736Z,-19.12
2024-01-04T11:44:17.467Z,-19.13
2024-01-04T11:46:47.841Z,-19.08
2024-01-04T11:49:17.524Z,-19.09
2024-01-04T11:51:49.730Z,-19.17
2024-01-04T11:54:20.091Z,-19.16
2024-01-04T11:56:49.923Z,-19.13
2024-01-04T11:59:45.640Z,-19.16
2024-01-04T12:24:00.348Z,-19.31
2024-01-04T12:26:41.114Z,-19.24
2024-01-04T12:46:34.565Z,-19.25
2024-01-04T13:08:49.019Z,-19.39
2024-01-04T13:11:20.014Z,-19.41
2024-01-04T13:13:52.821Z,-19.42
2024-01-04T13:16:22.319Z,-19.48
2024-01-04T13:18:52.112Z,-19.43
2024-01-04T13:21:22.509Z,-19.41
2024-01-04T13:23:58.720Z,-19.43
2024-01-04T13:26:27.716Z,-19.42
2024-01-04T13:29:01.821Z,-19.44
2024-01-04T13:31:36.904Z,-19.43
2024-01-04T13:34:06.412Z,-19.43
2024-01-04T13:36:35.616Z,-19.42
2024-01-04T13:39:06.932Z,-19.44
2024-01-04T13:41:36.321Z,-19.45
2024-01-04T13:44:08.149Z,-19.44
2024-01-04T13:46:37.138Z,-19.41
2024-01-04T13:49:06.359Z,-19.41
2024-01-04T13:51:40.549Z,-19.38
2024-01-04T13:54:16.329Z,-19.40
2024-01-04T13:56:45.239Z,-19.41
2024-01-04T13:59:14.341Z,-19.43
2024-01-04T14:01:43.301Z,-19.39
2024-01-04T14:04:14.369Z,-19.41
2024-01-04T14:06:45.940Z,-19.40
2024-01-04T14:09:28.517Z,-19.37
2024-01-04T14:12:00.725Z,-19.37
2024-01-04T14:14:33.895Z,-19.38
2024-01-04T14:17:07.088Z,-19.35
2024-01-04T14:19:36.164Z,-19.41
2024-01-04T14:22:05.323Z,-19.38
2024-01-04T14:24:42.727Z,-19.37
2024-01-04T14:27:15.139Z,-19.38
2024-01-04T14:29:44.320Z,-19.37
2024-01-04T14:32:13.314Z,-19.38
2024-01-04T14:34:44.177Z,-19.35
2024-01-04T14:37:13.077Z,-19.35
2024-01-04T14:39:43.342Z,-19.35
2024-01-04T14:42:15.835Z,-19.37
2024-01-04T14:44:47.569Z,-19.37
2024-01-04T14:47:16.515Z,-19.39
2024-01-04T14:49:46.177Z,-19.33
2024-01-04T14:52:15.384Z,-19.32
2024-01-04T14:54:47.087Z,-19.32
2024-01-04T14:57:19.066Z,-19.33
2024-01-04T14:59:52.226Z,-19.29
2024-01-04T15:02:24.174Z,-19.29
2024-01-04T15:04:55.511Z,-19.28
2024-01-04T15:07:29.689Z,-19.26
2024-01-04T15:10:02.902Z,-19.26
2024-01-04T15:12:32.567Z,-19.26
2024-01-04T15:15:16.772Z,-19.24
2024-01-04T15:17:52.349Z,-19.22
2024-01-04T15:20:22.629Z,-19.22
2024-01-04T15:22:51.915Z,-19.20
2024-01-04T15:25:27.746Z,-19.18
2024-01-04T15:27:56.490Z,-19.18
2024-01-04T15:30:25.477Z,-19.17
2024-01-04T15:32:55.610Z,-19.14
2024-01-04T15:35:24.686Z,-19.11
2024-01-04T15:37:58.167Z,-19.09
2024-01-04T15:40:28.693Z,-19.06
2024-01-04T15:42:58.183Z,-19.03
2024-01-04T15:45:27.355Z,-19.00
2024-01-04T15:47:57.277Z,-18.98
2024-01-04T15:50:28.931Z,-18.98
2024-01-04T15:53:00.963Z,-18.95
2024-01-04T15:55:33.121Z,-18.91
2024-01-04T16:18:17.575Z,-18.81
2024-01-04T16:20:50.768Z,-18.81
2024-01-04T16:23:22.229Z,-18.84
2024-01-04T16:25:51.769Z,-18.78
2024-01-04T16:28:27.558Z,-18.76
2024-01-04T16:31:02.301Z,-18.73
2024-01-04T16:33:33.370Z,-18.71
2024-01-04T16:36:04.044Z,-18.71
2024-01-04T16:38:38.599Z,-18.67
2024-01-04T16:41:12.477Z,-18.62
2024-01-04T16:43:44.640Z,-18.63
2024-01-04T16:46:15.149Z,-18.62
2024-01-04T16:48:51.104Z,-18.59
2024-01-04T16:51:24.636Z,-18.58
2024-01-04T16:53:56.964Z,-18.57
2024-01-04T16:56:26.171Z,-18.56
2024-01-04T16:58:56.645Z,-18.58
2024-01-04T17:01:25.361Z,-18.51
2024-01-04T17:04:01.546Z,-18.47
2024-01-04T17:06:31.359Z,-18.43
2024-01-04T17:09:02.212Z,-18.44
2024-01-04T17:11:34.588Z,-18.44
2024-01-04T17:14:03.658Z,-18.42
2024-01-04T17:16:42.685Z,-18.40
2024-01-04T17:40:33.907Z,-18.19
2024-01-04T17:43:09.266Z,-18.16
2024-01-04T17:45:41.015Z,-18.12
2024-01-04T17:48:15.574Z,-18.12
2024-01-04T17:50:46.305Z,-18.08
2024-01-04T17:53:15.383Z,-18.05
2024-01-04T17:55:50.607Z,-18.06
2024-01-04T17:58:20.686Z,-18.03
2024-01-04T18:00:50.778Z,-18.00
2024-01-04T18:03:20.177Z,-17.95
2024-01-04T18:05:55.498Z,-17.91
2024-01-04T18:08:24.906Z,-17.90
2024-01-04T18:10:55.409Z,-17.91
2024-01-04T18:13:24.500Z,-17.87
2024-01-04T18:15:53.620Z,-17.84
2024-01-04T18:18:28.497Z,-17.79
2024-01-04T18:21:00.587Z,-17.71
2024-01-04T18:23:29.487Z,-17.63
2024-01-04T18:26:12.548Z,-17.64
2024-01-04T18:28:46.159Z,-17.59
2024-01-04T18:31:16.225Z,-17.62
2024-01-04T18:33:51.298Z,-17.51
2024-01-04T18:36:24.115Z,-17.45
2024-01-04T19:01:26.405Z,-17.29
2024-01-04T19:04:05.806Z,-17.28
2024-01-04T19:06:35.677Z,-17.27
2024-01-04T19:09:06.987Z,-17.22
2024-01-04T19:11:39.285Z,-17.22
2024-01-04T19:14:12.947Z,-17.20
2024-01-04T19:16:48.731Z,-17.17
2024-01-04T19:19:18.525Z,-17.18
2024-01-04T19:21:50.048Z,-17.17
2024-01-04T19:24:30.828Z,-17.23
2024-01-04T19:26:59.892Z,-17.17
2024-01-04T19:29:31.931Z,-17.16
2024-01-04T19:32:02.516Z,-17.14
2024-01-04T19:34:35.108Z,-17.12
2024-01-04T19:37:04.030Z,-17.16
2024-01-04T19:39:35.698Z,-17.15
2024-01-04T19:42:13.963Z,-17.13
2024-01-04T19:44:44.521Z,-17.11
2024-01-04T19:47:15.455Z,-17.12
2024-01-04T19:49:44.212Z,-17.12
2024-01-04T19:52:13.120Z,-17.12
2024-01-04T19:54:41.931Z,-17.07
2024-01-04T19:57:10.875Z,-17.07
2024-01-04T19:59:39.734Z,-17.08
2024-01-04T20:02:11.482Z,-17.09
2024-01-04T20:04:43.128Z,-17.05
2024-01-04T20:07:17.164Z,-17.08
2024-01-04T20:09:51.121Z,-17.07
2024-01-04T20:12:20.327Z,-17.12
2024-01-04T20:14:54.180Z,-17.05
2024-01-04T20:17:24.414Z,-17.10
2024-01-04T20:19:57.741Z,-17.08
2024-01-04T20:22:29.512Z,-17.09
2024-01-04T20:25:00.242Z,-17.10
2024-01-04T20:27:37.949Z,-17.10
2024-01-04T20:30:15.766Z,-17.07
2024-01-04T20:32:47.758Z,-17.05
2024-01-04T20:35:23.948Z,-17.06
2024-01-04T20:37:55.625Z,-17.02
2024-01-04T20:40:27.566Z,-17.05
2024-01-04T20:42:59.730Z,-17.09
2024-01-04T20:45:28.870Z,-17.09
2024-01-04T20:48:03.171Z,-17.08
2024-01-04T20:50:43.490Z,-17.05
2024-01-04T20:53:15.130Z,-17.04
2024-01-04T20:55:48.996Z,-17.03
2024-01-04T20:58:18.070Z,-16.99
2024-01-04T21:00:47.018Z,-17.03
2024-01-04T21:03:23.962Z,-17.00
2024-01-04T21:05:58.979Z,-17.02
2024-01-04T21:08:34.833Z,-16.94
2024-01-04T21:11:09.254Z,-16.91
2024-01-04T21:13:45.184Z,-16.90
2024-01-04T21:16:20.066Z,-16.93
2024-01-04T21:18:51.997Z,-16.90
2024-01-04T21:21:32.663Z,-16.90
2024-01-04T21:24:25.399Z,-16.90
2024-01-04T21:26:58.328Z,-16.88
2024-01-04T21:29:30.017Z,-16.86
2024-01-04T21:32:02.833Z,-16.90
2024-01-04T21:34:43.805Z,-16.87
2024-01-04T21:37:14.769Z,-16.86
2024-01-04T21:39:46.533Z,-16.86
2024-01-04T21:42:16.224Z,-16.87
2024-01-04T21:44:50.873Z,-16.91
2024-01-04T21:47:26.029Z,-16.88
2024-01-04T21:49:58.232Z,-16.87
2024-01-04T21:52:28.780Z,-16.89
2024-01-04T21:55:04.705Z,-16.89
2024-01-04T21:57:39.704Z,-16.88
2024-01-04T22:00:11.518Z,-16.85
2024-01-04T22:02:46.625Z,-16.82
2024-01-04T22:05:21.210Z,-16.85
2024-01-04T22:07:58.483Z,-16.86
2024-01-04T22:10:28.988Z,-16.88
2024-01-04T22:12:57.825Z,-16.86
2024-01-04T22:15:29.719Z,-16.85
2024-01-04T22:18:12.601Z,-16.74
2024-01-04T22:20:41.733Z,-16.78
2024-01-04T22:23:15.005Z,-16.83
2024-01-04T22:25:44.011Z,-16.81
2024-01-04T22:28:12.805Z,-16.80
2024-01-04T22:30:46.782Z,-16.79
2024-01-04T22:33:18.653Z,-16.81
2024-01-04T22:35:56.307Z,-16.78
2024-01-04T22:38:26.721Z,-16.81
2024-01-04T22:40:58.402Z,-16.80
2024-01-04T22:43:32.788Z,-16.79
2024-01-04T22:46:05.025Z,-16.77
2024-01-04T22:48:36.746Z,-16.77
2024-01-04T22:51:06.632Z,-16.76
2024-01-04T22:53:39.922Z,-16.75
2024-01-04T22:56:09.292Z,-16.80
2024-01-04T22:58:40.980Z,-16.81
2024-01-04T23:01:13.406Z,-16.84
2024-01-04T23:03:48.270Z,-16.85
2024-01-04T23:06:17.465Z,-16.83
2024-01-04T23:08:50.350Z,-16.86
2024-01-04T23:11:19.429Z,-16.91
2024-01-04T23:13:48.042Z,-16.94
2024-01-04T23:16:16.843Z,-16.94
2024-01-04T23:18:45.669Z,-16.94
2024-01-04T23:21:14.518Z,-16.98
2024-01-04T23:23:43.738Z,-17.04
2024-01-04T23:26:13.813Z,-17.04
2024-01-04T23:28:42.512Z,-17.05
2024-01-04T23:31:11.403Z,-17.06
2024-01-04T23:33:43.110Z,-17.12
2024-01-04T23:36:12.625Z,-17.09
2024-01-04T23:38:41.334Z,-17.18
2024-01-04T23:41:10.228Z,-17.17
2024-01-04T23:43:40.827Z,-17.16
2024-01-04T23:46:09.478Z,-17.17
2024-01-04T23:48:38.234Z,-17.24
2024-01-04T23:51:07.469Z,-17.26
2024-01-04T23:53:36.328Z,-17.28
2024-01-04T23:56:05.299Z,-17.29
2024-01-04T23:58:33.910Z,-17.30
